sensor_id;sensor_type;location;lat;lon;timestamp;pressure;altitude;pressure_sealevel;temperature;humidity
11440;BME280;5776;51.814;4.510;2024-02-26T00:01:42;99890.19;;;6.69;100.00
11440;BME280;5776;51.814;4.510;2024-02-26T00:04:11;99894.78;;;6.68;100.00
11440;BME280;5776;51.814;4.510;2024-02-26T00:06:40;99889.38;;;6.68;100.00
11440;BME280;5776;51.814;4.510;2024-02-26T00:09:08;99890.47;;;6.67;100.00
11440;BME280;5776;51.814;4.510;2024-02-26T00:11:35;99885.09;;;6.67;100.00
11440;BME280;5776;51.814;4.510;2024-02-26T00:14:01;99890.47;;;6.67;100.00
11440;BME280;5776;51.814;4.510;2024-02-26T00:16:26;99876.47;;;6.65;100.00
11440;BME280;5776;51.814;4.510;2024-02-26T00:18:53;99880.75;;;6.66;100.00
11440;BME280;5776;51.814;4.510;2024-02-26T00:21:19;99883.47;;;6.66;100.00
11440;BME280;5776;51.814;4.510;2024-02-26T00:23:45;99883.47;;;6.66;100.00
11440;BME280;5776;51.814;4.510;2024-02-26T00:26:11;99883.47;;;6.66;100.00
11440;BME280;5776;51.814;4.510;2024-02-26T00:28:37;99888.06;;;6.66;100.00
11440;BME280;5776;51.814;4.510;2024-02-26T00:31:02;99899.66;;;6.66;100.00
11440;BME280;5776;51.814;4.510;2024-02-26T00:33:29;99899.13;;;6.64;100.00
11440;BME280;5776;51.814;4.510;2024-02-26T00:35:55;99899.44;;;6.63;100.00
11440;BME280;5776;51.814;4.510;2024-02-26T00:38:21;99893.72;;;6.64;100.00
11440;BME280;5776;51.814;4.510;2024-02-26T00:40:47;99905.63;;;6.63;100.00
11440;BME280;5776;51.814;4.510;2024-02-26T00:43:13;99897.81;;;6.62;100.00
11440;BME280;5776;51.814;4.510;2024-02-26T00:45:39;99905.63;;;6.63;100.00
11440;BME280;5776;51.814;4.510;2024-02-26T00:48:05;99899.44;;;6.63;100.00
11440;BME280;5776;51.814;4.510;2024-02-26T00:50:31;99906.72;;;6.62;100.00
11440;BME280;5776;51.814;4.510;2024-02-26T00:52:57;99898.63;;;6.62;100.00
11440;BME280;5776;51.814;4.510;2024-02-26T00:55:23;99890.53;;;6.62;100.00
11440;BME280;5776;51.814;4.510;2024-02-26T00:57:49;99902.94;;;6.63;100.00
11440;BME280;5776;51.814;4.510;2024-02-26T01:00:16;99902.94;;;6.63;100.00
11440;BME280;5776;51.814;4.510;2024-02-26T01:02:43;99904.03;;;6.62;100.00
11440;BME280;5776;51.814;4.510;2024-02-26T01:05:12;99898.91;;;6.61;100.00
11440;BME280;5776;51.814;4.510;2024-02-26T01:07:39;99914.28;;;6.60;100.00
11440;BME280;5776;51.814;4.510;2024-02-26T01:10:06;99909.69;;;6.61;100.00
11440;BME280;5776;51.814;4.510;2024-02-26T01:12:33;99916.19;;;6.60;100.00
11440;BME280;5776;51.814;4.510;2024-02-26T01:15:00;99919.69;;;6.60;100.00
11440;BME280;5776;51.814;4.510;2024-02-26T01:17:26;99926.16;;;6.59;100.00
11440;BME280;5776;51.814;4.510;2024-02-26T01:19:52;99931.56;;;6.59;100.00
11440;BME280;5776;51.814;4.510;2024-02-26T01:22:19;99935.34;;;6.58;100.00
11440;BME280;5776;51.814;4.510;2024-02-26T01:24:45;99920.53;;;6.56;100.00
11440;BME280;5776;51.814;4.510;2024-02-26T01:27:11;99918.63;;;6.56;100.00
11440;BME280;5776;51.814;4.510;2024-02-26T01:29:38;99917.56;;;6.57;100.00
11440;BME280;5776;51.814;4.510;2024-02-26T01:32:04;99917.56;;;6.57;100.00
11440;BME280;5776;51.814;4.510;2024-02-26T01:34:31;99915.66;;;6.58;100.00
11440;BME280;5776;51.814;4.510;2024-02-26T01:36:58;99922.97;;;6.57;100.00
11440;BME280;5776;51.814;4.510;2024-02-26T01:39:24;99919.72;;;6.55;100.00
11440;BME280;5776;51.814;4.510;2024-02-26T01:41:50;99931.31;;;6.56;100.00
11440;BME280;5776;51.814;4.510;2024-02-26T01:44:17;99936.72;;;6.56;100.00
11440;BME280;5776;51.814;4.510;2024-02-26T01:46:43;99944.00;;;6.55;100.00
11440;BME280;5776;51.814;4.510;2024-02-26T01:49:11;99939.69;;;6.54;100.00
11440;BME280;5776;51.814;4.510;2024-02-26T01:51:39;99943.50;;;6.53;100.00
11440;BME280;5776;51.814;4.510;2024-02-26T01:54:06;99946.47;;;6.52;100.00
11440;BME280;5776;51.814;4.510;2024-02-26T01:56:35;99951.59;;;6.53;100.00
11440;BME280;5776;51.814;4.510;2024-02-26T01:59:02;99953.75;;;6.51;100.00
11440;BME280;5776;51.814;4.510;2024-02-26T02:01:30;99949.97;;;6.52;100.00
11440;BME280;5776;51.814;4.510;2024-02-26T02:03:58;99948.88;;;6.53;100.00
11440;BME280;5776;51.814;4.510;2024-02-26T02:06:27;99954.28;;;6.53;100.00
11440;BME280;5776;51.814;4.510;2024-02-26T02:08:56;99950.25;;;6.51;100.00
11440;BME280;5776;51.814;4.510;2024-02-26T02:11:22;99954.84;;;6.50;100.00
11440;BME280;5776;51.814;4.510;2024-02-26T02:13:47;99959.94;;;6.52;100.00
11440;BME280;5776;51.814;4.510;2024-02-26T02:16:15;99955.91;;;6.49;100.00
11440;BME280;5776;51.814;4.510;2024-02-26T02:18:41;99953.22;;;6.49;100.00
11440;BME280;5776;51.814;4.510;2024-02-26T02:21:07;99958.63;;;6.49;100.00
11440;BME280;5776;51.814;4.510;2024-02-26T02:23:33;99959.72;;;6.48;100.00
11440;BME280;5776;51.814;4.510;2024-02-26T02:25:59;99970.50;;;6.48;100.00
11440;BME280;5776;51.814;4.510;2024-02-26T02:28:30;99965.38;;;6.46;100.00
11440;BME280;5776;51.814;4.510;2024-02-26T02:30:56;99959.19;;;6.46;100.00
11440;BME280;5776;51.814;4.510;2024-02-26T02:33:26;99959.19;;;6.46;100.00
11440;BME280;5776;51.814;4.510;2024-02-26T02:35:52;99970.25;;;6.44;100.00
11440;BME280;5776;51.814;4.510;2024-02-26T02:38:20;99979.16;;;6.45;100.00
11440;BME280;5776;51.814;4.510;2024-02-26T02:40:46;99974.84;;;6.44;100.00
11440;BME280;5776;51.814;4.510;2024-02-26T02:43:14;99986.72;;;6.43;100.00
11440;BME280;5776;51.814;4.510;2024-02-26T02:45:40;99984.31;;;6.41;100.00
11440;BME280;5776;51.814;4.510;2024-02-26T02:48:06;99978.09;;;6.41;100.00
11440;BME280;5776;51.814;4.510;2024-02-26T02:50:32;99984.59;;;6.40;100.00
11440;BME280;5776;51.814;4.510;2024-02-26T02:52:58;99988.38;;;6.39;100.00
11440;BME280;5776;51.814;4.510;2024-02-26T02:55:24;99982.97;;;6.39;100.00
11440;BME280;5776;51.814;4.510;2024-02-26T02:57:50;99978.09;;;6.41;100.00
11440;BME280;5776;51.814;4.510;2024-02-26T03:00:18;99992.16;;;6.38;100.00
11440;BME280;5776;51.814;4.510;2024-02-26T03:02:44;99986.78;;;6.38;100.00
11440;BME280;5776;51.814;4.510;2024-02-26T03:05:11;99987.56;;;6.38;100.00
11440;BME280;5776;51.814;4.510;2024-02-26T03:07:37;99981.38;;;6.38;100.00
11440;BME280;5776;51.814;4.510;2024-02-26T03:10:03;99984.34;;;6.36;100.00
11440;BME280;5776;51.814;4.510;2024-02-26T03:12:30;99981.66;;;6.36;100.00
11440;BME280;5776;51.814;4.510;2024-02-26T03:14:56;99990.84;;;6.35;100.00
11440;BME280;5776;51.814;4.510;2024-02-26T03:17:23;99993.53;;;6.35;100.00
11440;BME280;5776;51.814;4.510;2024-02-26T03:19:50;99986.50;;;6.34;100.00
11440;BME280;5776;51.814;4.510;2024-02-26T03:22:19;99976.81;;;6.33;100.00
11440;BME280;5776;51.814;4.510;2024-02-26T03:24:46;99982.22;;;6.33;100.00
11440;BME280;5776;51.814;4.510;2024-02-26T03:27:12;99993.25;;;6.32;100.00
11440;BME280;5776;51.814;4.510;2024-02-26T03:29:38;99989.50;;;6.33;100.00
11440;BME280;5776;51.814;4.510;2024-02-26T03:32:05;99996.50;;;6.34;100.00
11440;BME280;5776;51.814;4.510;2024-02-26T03:34:32;99992.19;;;6.33;100.00
11440;BME280;5776;51.814;4.510;2024-02-26T03:37:01;99990.31;;;6.33;100.00
11440;BME280;5776;51.814;4.510;2024-02-26T03:39:27;99993.78;;;6.34;100.00
11440;BME280;5776;51.814;4.510;2024-02-26T03:41:53;99995.16;;;6.31;100.00
11440;BME280;5776;51.814;4.510;2024-02-26T03:44:20;99992.47;;;6.31;100.00
11440;BME280;5776;51.814;4.510;2024-02-26T03:46:46;99993.56;;;6.30;100.00
11440;BME280;5776;51.814;4.510;2024-02-26T03:49:13;100003.25;;;6.31;100.00
11440;BME280;5776;51.814;4.510;2024-02-26T03:51:39;99997.63;;;6.27;100.00
11440;BME280;5776;51.814;4.510;2024-02-26T03:54:04;99997.31;;;6.29;100.00
11440;BME280;5776;51.814;4.510;2024-02-26T03:56:30;100008.13;;;6.29;100.00
11440;BME280;5776;51.814;4.510;2024-02-26T03:58:55;100000.31;;;6.27;100.00
11440;BME280;5776;51.814;4.510;2024-02-26T04:01:21;99999.22;;;6.28;100.00
11440;BME280;5776;51.814;4.510;2024-02-26T04:03:48;100000.59;;;6.26;100.00
11440;BME280;5776;51.814;4.510;2024-02-26T04:06:15;100006.28;;;6.24;100.00
11440;BME280;5776;51.814;4.510;2024-02-26T04:08:41;100012.22;;;6.21;100.00
11440;BME280;5776;51.814;4.510;2024-02-26T04:11:07;100019.22;;;6.22;100.00
11440;BME280;5776;51.814;4.510;2024-02-26T04:13:34;100020.28;;;6.21;100.00
11440;BME280;5776;51.814;4.510;2024-02-26T04:16:00;100023.78;;;6.22;100.00
11440;BME280;5776;51.814;4.510;2024-02-26T04:18:29;100021.41;;;6.20;100.00
11440;BME280;5776;51.814;4.510;2024-02-26T04:20:56;100035.94;;;6.19;100.00
11440;BME280;5776;51.814;4.510;2024-02-26T04:23:23;100025.16;;;6.19;100.00
11440;BME280;5776;51.814;4.510;2024-02-26T04:25:49;100029.75;;;6.19;100.00
11440;BME280;5776;51.814;4.510;2024-02-26T04:28:15;100023.03;;;6.16;100.00
11440;BME280;5776;51.814;4.510;2024-02-26T04:30:42;100018.72;;;6.15;100.00
11440;BME280;5776;51.814;4.510;2024-02-26T04:33:07;100017.09;;;6.14;100.00
11440;BME280;5776;51.814;4.510;2024-02-26T04:35:33;100017.94;;;6.15;100.00
11440;BME280;5776;51.814;4.510;2024-02-26T04:38:01;100021.69;;;6.14;100.00
11440;BME280;5776;51.814;4.510;2024-02-26T04:40:27;100025.47;;;6.13;100.00
11440;BME280;5776;51.814;4.510;2024-02-26T04:42:53;100030.06;;;6.12;100.00
11440;BME280;5776;51.814;4.510;2024-02-26T04:45:19;100023.84;;;6.12;100.00
11440;BME280;5776;51.814;4.510;2024-02-26T04:47:46;100030.88;;;6.13;100.00
11440;BME280;5776;51.814;4.510;2024-02-26T04:50:12;100033.84;;;6.11;100.00
11440;BME280;5776;51.814;4.510;2024-02-26T04:52:38;100035.72;;;6.11;100.00
11440;BME280;5776;51.814;4.510;2024-02-26T04:55:04;100031.44;;;6.10;100.00
11440;BME280;5776;51.814;4.510;2024-02-26T04:57:30;100034.41;;;6.08;100.00
11440;BME280;5776;51.814;4.510;2024-02-26T04:59:57;100046.78;;;6.09;100.00
11440;BME280;5776;51.814;4.510;2024-02-26T05:02:23;100048.69;;;6.09;100.00
11440;BME280;5776;51.814;4.510;2024-02-26T05:04:50;100053.28;;;6.08;100.00
11440;BME280;5776;51.814;4.510;2024-02-26T05:07:16;100046.28;;;6.07;100.00
11440;BME280;5776;51.814;4.510;2024-02-26T05:09:43;100055.44;;;6.06;100.00
11440;BME280;5776;51.814;4.510;2024-02-26T05:12:09;100061.91;;;6.05;100.00
11440;BME280;5776;51.814;4.510;2024-02-26T05:14:35;100060.81;;;6.06;100.00
11440;BME280;5776;51.814;4.510;2024-02-26T05:17:02;100058.13;;;6.06;100.00
11440;BME280;5776;51.814;4.510;2024-02-26T05:19:28;100072.69;;;6.05;100.00
11440;BME280;5776;51.814;4.510;2024-02-26T05:21:54;100069.47;;;6.03;100.00
11440;BME280;5776;51.814;4.510;2024-02-26T05:24:20;100064.06;;;6.03;100.00
11440;BME280;5776;51.814;4.510;2024-02-26T05:26:48;100065.44;;;6.00;100.00
11440;BME280;5776;51.814;4.510;2024-02-26T05:29:14;100077.03;;;6.01;100.00
11440;BME280;5776;51.814;4.510;2024-02-26T05:31:43;100070.03;;;6.00;100.00
11440;BME280;5776;51.814;4.510;2024-02-26T05:34:09;100082.41;;;6.01;100.00
11440;BME280;5776;51.814;4.510;2024-02-26T05:36:35;100080.81;;;6.00;100.00
11440;BME280;5776;51.814;4.510;2024-02-26T05:39:01;100088.34;;;5.98;100.00
11440;BME280;5776;51.814;4.510;2024-02-26T05:41:27;100089.16;;;5.98;100.00
11440;BME280;5776;51.814;4.510;2024-02-26T05:43:53;100094.56;;;5.98;100.00
11440;BME280;5776;51.814;4.510;2024-02-26T05:46:20;100099.16;;;5.98;100.00
11440;BME280;5776;51.814;4.510;2024-02-26T05:48:49;100105.34;;;5.98;100.00
11440;BME280;5776;51.814;4.510;2024-02-26T05:51:14;100108.28;;;5.97;100.00
11440;BME280;5776;51.814;4.510;2024-02-26T05:53:41;100102.09;;;5.96;100.00
11440;BME280;5776;51.814;4.510;2024-02-26T05:56:07;100116.66;;;5.95;100.00
11440;BME280;5776;51.814;4.510;2024-02-26T05:58:33;100105.09;;;5.95;100.00
11440;BME280;5776;51.814;4.510;2024-02-26T06:00:59;100112.09;;;5.96;100.00
11440;BME280;5776;51.814;4.510;2024-02-26T06:03:26;100129.06;;;5.96;100.00
11440;BME280;5776;51.814;4.510;2024-02-26T06:05:53;100129.84;;;5.97;100.00
11440;BME280;5776;51.814;4.510;2024-02-26T06:08:19;100134.44;;;5.96;100.00
11440;BME280;5776;51.814;4.510;2024-02-26T06:10:46;100147.38;;;5.94;100.00
11440;BME280;5776;51.814;4.510;2024-02-26T06:13:11;100137.66;;;5.93;100.00
11440;BME280;5776;51.814;4.510;2024-02-26T06:15:37;100137.13;;;5.96;100.00
11440;BME280;5776;51.814;4.510;2024-02-26T06:18:03;100144.44;;;5.96;100.00
11440;BME280;5776;51.814;4.510;2024-02-26T06:20:29;100144.44;;;5.96;100.00
11440;BME280;5776;51.814;4.510;2024-02-26T06:22:54;100151.41;;;5.97;100.00
11440;BME280;5776;51.814;4.510;2024-02-26T06:25:20;100160.34;;;5.97;100.00
11440;BME280;5776;51.814;4.510;2024-02-26T06:27:47;100154.41;;;5.95;100.00
11440;BME280;5776;51.814;4.510;2024-02-26T06:30:14;100161.69;;;5.95;100.00
11440;BME280;5776;51.814;4.510;2024-02-26T06:32:40;100164.09;;;5.96;100.00
11440;BME280;5776;51.814;4.510;2024-02-26T06:35:05;100172.19;;;5.96;100.00
11440;BME280;5776;51.814;4.510;2024-02-26T06:37:37;100172.47;;;6.00;100.00
11440;BME280;5776;51.814;4.510;2024-02-26T06:40:03;100165.72;;;6.02;100.00
11440;BME280;5776;51.814;4.510;2024-02-26T06:42:30;100185.38;;;6.03;100.00
11440;BME280;5776;51.814;4.510;2024-02-26T06:44:56;100183.25;;;6.00;100.00
11440;BME280;5776;51.814;4.510;2024-02-26T06:47:22;100181.34;;;6.00;100.00
11440;BME280;5776;51.814;4.510;2024-02-26T06:49:48;100184.31;;;5.99;100.00
11440;BME280;5776;51.814;4.510;2024-02-26T06:52:15;100192.41;;;5.99;100.00
11440;BME280;5776;51.814;4.510;2024-02-26T06:54:42;100194.81;;;6.00;100.00
11440;BME280;5776;51.814;4.510;2024-02-26T06:57:07;100195.91;;;5.99;100.00
11440;BME280;5776;51.814;4.510;2024-02-26T06:59:33;100206.97;;;5.98;100.00
11440;BME280;5776;51.814;4.510;2024-02-26T07:01:59;100208.84;;;5.97;100.00
11440;BME280;5776;51.814;4.510;2024-02-26T07:04:26;100223.41;;;5.96;100.00
11440;BME280;5776;51.814;4.510;2024-02-26T07:06:52;100208.31;;;5.95;100.00
11440;BME280;5776;51.814;4.510;2024-02-26T07:09:18;100226.91;;;5.97;100.00
11440;BME280;5776;51.814;4.510;2024-02-26T07:11:43;100231.78;;;5.95;100.00
11440;BME280;5776;51.814;4.510;2024-02-26T07:14:10;100240.94;;;5.94;100.00
11440;BME280;5776;51.814;4.510;2024-02-26T07:16:36;100232.00;;;5.93;100.00
11440;BME280;5776;51.814;4.510;2024-02-26T07:19:03;100241.75;;;5.99;100.00
11440;BME280;5776;51.814;4.510;2024-02-26T07:21:29;100242.56;;;6.00;100.00
11440;BME280;5776;51.814;4.510;2024-02-26T07:23:55;100244.69;;;5.98;100.00
11440;BME280;5776;51.814;4.510;2024-02-26T07:26:22;100251.44;;;5.95;100.00
11440;BME280;5776;51.814;4.510;2024-02-26T07:28:51;100255.50;;;5.98;100.00
11440;BME280;5776;51.814;4.510;2024-02-26T07:31:18;100266.00;;;5.99;100.00
11440;BME280;5776;51.814;4.510;2024-02-26T07:33:43;100261.41;;;6.00;100.00
11440;BME280;5776;51.814;4.510;2024-02-26T07:36:09;100264.66;;;6.02;100.00
11440;BME280;5776;51.814;4.510;2024-02-26T07:38:35;100263.81;;;6.06;100.00
11440;BME280;5776;51.814;4.510;2024-02-26T07:41:02;100264.91;;;6.05;100.00
11440;BME280;5776;51.814;4.510;2024-02-26T07:43:28;100259.78;;;6.04;100.00
11440;BME280;5776;51.814;4.510;2024-02-26T07:45:54;100267.06;;;6.03;100.00
11440;BME280;5776;51.814;4.510;2024-02-26T07:48:20;100270.56;;;6.04;100.00
11440;BME280;5776;51.814;4.510;2024-02-26T07:50:46;100275.69;;;6.05;100.00
11440;BME280;5776;51.814;4.510;2024-02-26T07:53:13;100274.91;;;6.05;100.00
11440;BME280;5776;51.814;4.510;2024-02-26T07:55:39;100279.47;;;6.04;100.00
11440;BME280;5776;51.814;4.510;2024-02-26T07:58:04;100285.38;;;6.06;100.00
11440;BME280;5776;51.814;4.510;2024-02-26T08:00:30;100277.28;;;6.06;100.00
11440;BME280;5776;51.814;4.510;2024-02-26T08:02:56;100287.28;;;6.06;100.00
11440;BME280;5776;51.814;4.510;2024-02-26T08:05:22;100295.38;;;6.06;100.00
11440;BME280;5776;51.814;4.510;2024-02-26T08:07:48;100299.41;;;6.09;100.00
11440;BME280;5776;51.814;4.510;2024-02-26T08:10:14;100304.00;;;6.08;100.00
11440;BME280;5776;51.814;4.510;2024-02-26T08:12:40;100311.84;;;6.10;100.00
11440;BME280;5776;51.814;4.510;2024-02-26T08:15:07;100311.00;;;6.09;100.00
11440;BME280;5776;51.814;4.510;2024-02-26T08:17:33;100318.28;;;6.09;100.00
11440;BME280;5776;51.814;4.510;2024-02-26T08:20:00;100328.00;;;6.10;100.00
11440;BME280;5776;51.814;4.510;2024-02-26T08:22:26;100335.81;;;6.11;100.00
11440;BME280;5776;51.814;4.510;2024-02-26T08:24:51;100334.19;;;6.10;100.00
11440;BME280;5776;51.814;4.510;2024-02-26T08:27:17;100332.06;;;6.12;100.00
11440;BME280;5776;51.814;4.510;2024-02-26T08:29:43;100342.84;;;6.12;100.00
11440;BME280;5776;51.814;4.510;2024-02-26T08:32:10;100343.34;;;6.14;100.00
11440;BME280;5776;51.814;4.510;2024-02-26T08:34:36;100346.03;;;6.14;100.00
11440;BME280;5776;51.814;4.510;2024-02-26T08:37:02;100343.09;;;6.16;100.00
11440;BME280;5776;51.814;4.510;2024-02-26T08:39:28;100348.47;;;6.16;100.00
11440;BME280;5776;51.814;4.510;2024-02-26T08:41:56;100360.06;;;6.16;100.00
11440;BME280;5776;51.814;4.510;2024-02-26T08:44:22;100360.88;;;6.17;100.00
11440;BME280;5776;51.814;4.510;2024-02-26T08:46:48;100363.06;;;6.15;100.00
11440;BME280;5776;51.814;4.510;2024-02-26T08:49:14;100363.06;;;6.15;100.00
11440;BME280;5776;51.814;4.510;2024-02-26T08:51:42;100358.19;;;6.17;100.00
11440;BME280;5776;51.814;4.510;2024-02-26T08:54:10;100377.34;;;6.20;100.00
11440;BME280;5776;51.814;4.510;2024-02-26T08:56:36;100375.44;;;6.26;100.00
11440;BME280;5776;51.814;4.510;2024-02-26T08:59:01;100384.34;;;6.26;100.00
11440;BME280;5776;51.814;4.510;2024-02-26T09:01:31;100383.00;;;6.24;100.00
11440;BME280;5776;51.814;4.510;2024-02-26T09:03:57;100385.44;;;6.25;100.00
11440;BME280;5776;51.814;4.510;2024-02-26T09:06:23;100392.72;;;6.25;100.00
11440;BME280;5776;51.814;4.510;2024-02-26T09:08:49;100400.00;;;6.24;100.00
11440;BME280;5776;51.814;4.510;2024-02-26T09:11:15;100399.47;;;6.22;100.00
11440;BME280;5776;51.814;4.510;2024-02-26T09:13:41;100402.69;;;6.24;100.00
11440;BME280;5776;51.814;4.510;2024-02-26T09:16:08;100400.81;;;6.25;100.00
11440;BME280;5776;51.814;4.510;2024-02-26T09:18:35;100407.53;;;6.27;100.00
11440;BME280;5776;51.814;4.510;2024-02-26T09:21:04;100412.41;;;6.25;100.00
11440;BME280;5776;51.814;4.510;2024-02-26T09:23:31;100407.53;;;6.27;100.00
11440;BME280;5776;51.814;4.510;2024-02-26T09:25:57;100415.63;;;6.27;100.00
11440;BME280;5776;51.814;4.510;2024-02-26T09:28:23;100428.84;;;6.29;100.00
11440;BME280;5776;51.814;4.510;2024-02-26T09:30:49;100427.50;;;6.32;100.00
11440;BME280;5776;51.814;4.510;2024-02-26T09:33:16;100432.63;;;6.28;100.00
11440;BME280;5776;51.814;4.510;2024-02-26T09:35:41;100432.38;;;6.30;100.00
11440;BME280;5776;51.814;4.510;2024-02-26T09:38:08;100436.66;;;6.31;100.00
11440;BME280;5776;51.814;4.510;2024-02-26T09:40:34;100430.47;;;6.30;100.00
11440;BME280;5776;51.814;4.510;2024-02-26T09:43:00;100445.84;;;6.30;100.00
11440;BME280;5776;51.814;4.510;2024-02-26T09:45:30;100442.63;;;6.33;100.00
11440;BME280;5776;51.814;4.510;2024-02-26T09:47:58;100439.91;;;6.33;100.00
11440;BME280;5776;51.814;4.510;2024-02-26T09:50:24;100459.06;;;6.31;100.00
11440;BME280;5776;51.814;4.510;2024-02-26T09:52:51;100456.09;;;6.33;100.00
11440;BME280;5776;51.814;4.510;2024-02-26T09:55:17;100460.94;;;6.36;100.00
11440;BME280;5776;51.814;4.510;2024-02-26T09:57:46;100460.69;;;6.32;100.00
11440;BME280;5776;51.814;4.510;2024-02-26T10:00:17;100465.53;;;6.35;100.00
11440;BME280;5776;51.814;4.510;2024-02-26T10:02:47;100470.13;;;6.35;100.00
11440;BME280;5776;51.814;4.510;2024-02-26T10:05:19;100474.44;;;6.36;100.00
11440;BME280;5776;51.814;4.510;2024-02-26T10:07:45;100478.75;;;6.37;100.00
11440;BME280;5776;51.814;4.510;2024-02-26T10:10:17;100485.22;;;6.36;100.00
11440;BME280;5776;51.814;4.510;2024-02-26T10:12:43;100483.63;;;6.40;100.00
11440;BME280;5776;51.814;4.510;2024-02-26T10:15:09;100488.72;;;6.36;100.00
11440;BME280;5776;51.814;4.510;2024-02-26T10:17:35;100485.78;;;6.38;100.00
11440;BME280;5776;51.814;4.510;2024-02-26T10:20:13;100486.84;;;6.37;100.00
11440;BME280;5776;51.814;4.510;2024-02-26T10:22:44;100494.66;;;6.38;100.00
11440;BME280;5776;51.814;4.510;2024-02-26T10:25:10;100503.56;;;6.39;100.00
11440;BME280;5776;51.814;4.510;2024-02-26T10:27:37;100508.97;;;6.39;100.00
11440;BME280;5776;51.814;4.510;2024-02-26T10:30:04;100516.00;;;6.40;100.00
11440;BME280;5776;51.814;4.510;2024-02-26T10:32:31;100519.50;;;6.40;100.00
11440;BME280;5776;51.814;4.510;2024-02-26T10:34:57;100520.28;;;6.41;100.00
11440;BME280;5776;51.814;4.510;2024-02-26T10:37:23;100529.47;;;6.40;100.00
11440;BME280;5776;51.814;4.510;2024-02-26T10:39:50;100528.38;;;6.41;100.00
11440;BME280;5776;51.814;4.510;2024-02-26T10:42:16;100532.69;;;6.42;100.00
11440;BME280;5776;51.814;4.510;2024-02-26T10:44:45;100545.13;;;6.43;100.00
11440;BME280;5776;51.814;4.510;2024-02-26T10:47:12;100553.47;;;6.46;100.00
11440;BME280;5776;51.814;4.510;2024-02-26T10:49:38;100551.59;;;6.47;100.00
11440;BME280;5776;51.814;4.510;2024-02-26T10:52:10;100550.53;;;6.48;100.00
11440;BME280;5776;51.814;4.510;2024-02-26T10:54:38;100564.03;;;6.48;100.00
11440;BME280;5776;51.814;4.510;2024-02-26T10:57:08;100559.16;;;6.50;100.00
11440;BME280;5776;51.814;4.510;2024-02-26T10:59:35;100555.38;;;6.51;100.00
11440;BME280;5776;51.814;4.510;2024-02-26T11:02:01;100557.03;;;6.52;100.00
11440;BME280;5776;51.814;4.510;2024-02-26T11:04:26;100564.03;;;6.53;100.00
11440;BME280;5776;51.814;4.510;2024-02-26T11:06:56;100555.94;;;6.53;100.00
11440;BME280;5776;51.814;4.510;2024-02-26T11:09:23;100576.44;;;6.54;100.00
11440;BME280;5776;51.814;4.510;2024-02-26T11:11:50;100569.16;;;6.55;100.00
11440;BME280;5776;51.814;4.510;2024-02-26T11:14:20;100568.34;;;6.54;100.00
11440;BME280;5776;51.814;4.510;2024-02-26T11:16:47;100580.75;;;6.55;100.00
11440;BME280;5776;51.814;4.510;2024-02-26T11:19:15;100582.66;;;6.55;100.00
11440;BME280;5776;51.814;4.510;2024-02-26T11:21:42;100594.25;;;6.55;100.00
11440;BME280;5776;51.814;4.510;2024-02-26T11:24:11;100601.25;;;6.56;100.00
11440;BME280;5776;51.814;4.510;2024-02-26T11:26:50;100599.38;;;6.57;100.00
11440;BME280;5776;51.814;4.510;2024-02-26T11:29:27;100595.06;;;6.56;100.00
11440;BME280;5776;51.814;4.510;2024-02-26T11:31:55;100595.88;;;6.56;100.00
11440;BME280;5776;51.814;4.510;2024-02-26T11:34:22;100605.59;;;6.57;100.00
11440;BME280;5776;51.814;4.510;2024-02-26T11:36:49;100611.50;;;6.59;100.00
11440;BME280;5776;51.814;4.510;2024-02-26T11:39:16;100613.69;;;6.57;100.00
11440;BME280;5776;51.814;4.510;2024-02-26T11:41:43;100628.00;;;6.58;100.00
11440;BME280;5776;51.814;4.510;2024-02-26T11:44:09;100623.41;;;6.58;100.00
11440;BME280;5776;51.814;4.510;2024-02-26T11:46:42;100633.09;;;6.59;100.00
11440;BME280;5776;51.814;4.510;2024-02-26T11:51:52;100627.22;;;6.67;100.00
11440;BME280;5776;51.814;4.510;2024-02-26T11:54:50;100643.66;;;6.66;100.00
11440;BME280;5776;51.814;4.510;2024-02-26T12:00:10;100635.81;;;6.59;100.00
11440;BME280;5776;51.814;4.510;2024-02-26T12:05:20;100648.25;;;6.70;100.00
11440;BME280;5776;51.814;4.510;2024-02-26T12:07:59;100642.06;;;6.75;100.00
11440;BME280;5776;51.814;4.510;2024-02-26T12:12:59;100647.97;;;6.72;100.00
11440;BME280;5776;51.814;4.510;2024-02-26T12:15:33;100659.03;;;6.65;100.00
11440;BME280;5776;51.814;4.510;2024-02-26T12:18:04;100651.75;;;6.61;100.00
11440;BME280;5776;51.814;4.510;2024-02-26T12:20:31;100658.47;;;6.58;100.00
11440;BME280;5776;51.814;4.510;2024-02-26T12:22:57;100656.03;;;6.57;100.00
11440;BME280;5776;51.814;4.510;2024-02-26T12:25:26;100665.47;;;6.59;100.00
11440;BME280;5776;51.814;4.510;2024-02-26T12:27:53;100661.97;;;6.59;100.00
11440;BME280;5776;51.814;4.510;2024-02-26T12:30:21;100681.16;;;6.57;100.00
11440;BME280;5776;51.814;4.510;2024-02-26T12:32:51;100661.44;;;6.57;100.00
11440;BME280;5776;51.814;4.510;2024-02-26T12:35:18;100667.66;;;6.57;100.00
11440;BME280;5776;51.814;4.510;2024-02-26T12:37:44;100678.47;;;6.57;100.00
11440;BME280;5776;51.814;4.510;2024-02-26T12:40:12;100683.84;;;6.57;100.00
11440;BME280;5776;51.814;4.510;2024-02-26T12:42:39;100693.81;;;6.57;100.00
11440;BME280;5776;51.814;4.510;2024-02-26T12:45:07;100694.66;;;6.57;100.00
11440;BME280;5776;51.814;4.510;2024-02-26T12:47:36;100701.66;;;6.58;100.00
11440;BME280;5776;51.814;4.510;2024-02-26T12:50:03;100702.47;;;6.59;100.00
11440;BME280;5776;51.814;4.510;2024-02-26T12:52:32;100709.75;;;6.58;100.00
11440;BME280;5776;51.814;4.510;2024-02-26T12:55:00;100704.91;;;6.60;100.00
11440;BME280;5776;51.814;4.510;2024-02-26T12:57:27;100714.63;;;6.61;100.00
11440;BME280;5776;51.814;4.510;2024-02-26T12:59:56;100710.31;;;6.60;100.00
11440;BME280;5776;51.814;4.510;2024-02-26T13:02:22;100715.69;;;6.60;100.00
11440;BME280;5776;51.814;4.510;2024-02-26T13:04:49;100721.66;;;6.62;100.00
11440;BME280;5776;51.814;4.510;2024-02-26T13:07:14;100727.03;;;6.62;100.00
11440;BME280;5776;51.814;4.510;2024-02-26T13:09:40;100729.75;;;6.62;100.00
11440;BME280;5776;51.814;4.510;2024-02-26T13:12:07;100737.84;;;6.62;100.00